Jerusalem, Vermont
Current Conditions -  °F | °C
As of 9:35 PM on Thursday 20 Nov 2014 (Local Time) from K6B0 Reporting Station
Scattered Clouds Scattered Clouds  
Wind Chill: 21°   Ceiling: Unl
Heat Index: 26°   Visibility: 10mi
Dew Point: 11°   Wind: 5mph
Humidity: 52%   Direction: 210°SSW
Pressure: 29.86"   Gusts: NA
Location:  44.1404°N, 73.0493°W
Report Text: K6B0 210235Z AUTO 21004KT 10SM SCT048 SCT050 SCT085 M03/M12 A2986 RMK AO2 T10311117
Loading
Personal Weather Stations






























Interactive Weather Map New forecast layout! Learn more

10-Day Weather Forecast

Advertisements
Track Severe Weather on mobile